sensor_id;sensor_type;location;lat;lon;timestamp;noise_LAeq;noise_LA_min;noise_LA_max;noise_LA01;noise_LA95
70077;Laerm;57448;51.490;5.436;2023-04-25T00:01:10;42.12;38.67;49.43;;
70077;Laerm;57448;51.490;5.436;2023-04-25T00:03:13;42.10;38.27;50.86;;
70077;Laerm;57448;51.490;5.436;2023-04-25T00:05:14;40.72;37.39;54.58;;
70077;Laerm;57448;51.490;5.436;2023-04-25T00:07:16;42.19;38.64;48.34;;
70077;Laerm;57448;51.490;5.436;2023-04-25T00:09:19;42.13;38.74;51.94;;
70077;Laerm;57448;51.490;5.436;2023-04-25T00:11:20;41.91;38.35;49.41;;
70077;Laerm;57448;51.490;5.436;2023-04-25T00:13:21;42.27;38.10;53.41;;
70077;Laerm;57448;51.490;5.436;2023-04-25T00:15:23;42.96;38.81;50.72;;
70077;Laerm;57448;51.490;5.436;2023-04-25T00:17:25;40.76;37.70;51.58;;
70077;Laerm;57448;51.490;5.436;2023-04-25T00:19:26;40.44;37.02;45.82;;
70077;Laerm;57448;51.490;5.436;2023-04-25T00:21:28;40.44;36.87;44.85;;
70077;Laerm;57448;51.490;5.436;2023-04-25T00:23:31;41.91;37.53;49.91;;
70077;Laerm;57448;51.490;5.436;2023-04-25T00:25:34;41.01;38.14;46.34;;
70077;Laerm;57448;51.490;5.436;2023-04-25T00:27:35;41.22;38.07;48.44;;
70077;Laerm;57448;51.490;5.436;2023-04-25T00:29:36;42.54;39.17;48.88;;
70077;Laerm;57448;51.490;5.436;2023-04-25T00:31:38;42.04;38.96;57.63;;
70077;Laerm;57448;51.490;5.436;2023-04-25T00:33:39;42.66;38.90;51.50;;
70077;Laerm;57448;51.490;5.436;2023-04-25T00:35:40;42.19;38.77;48.44;;
70077;Laerm;57448;51.490;5.436;2023-04-25T00:37:42;42.23;38.11;56.49;;
70077;Laerm;57448;51.490;5.436;2023-04-25T00:39:43;65.50;38.21;100.90;;
70077;Laerm;57448;51.490;5.436;2023-04-25T00:41:46;42.35;38.40;48.87;;
70077;Laerm;57448;51.490;5.436;2023-04-25T00:43:48;41.93;38.55;59.67;;
70077;Laerm;57448;51.490;5.436;2023-04-25T00:45:49;41.61;38.54;54.89;;
70077;Laerm;57448;51.490;5.436;2023-04-25T00:47:51;41.68;38.37;46.19;;
70077;Laerm;57448;51.490;5.436;2023-04-25T00:49:53;41.27;38.27;44.82;;
70077;Laerm;57448;51.490;5.436;2023-04-25T00:51:54;41.15;38.09;45.74;;
70077;Laerm;57448;51.490;5.436;2023-04-25T00:53:56;42.26;38.75;48.59;;
70077;Laerm;57448;51.490;5.436;2023-04-25T00:55:57;42.49;38.97;50.40;;
70077;Laerm;57448;51.490;5.436;2023-04-25T00:58:00;41.90;38.91;59.50;;
70077;Laerm;57448;51.490;5.436;2023-04-25T01:00:02;43.77;38.86;50.60;;
70077;Laerm;57448;51.490;5.436;2023-04-25T01:02:05;42.97;39.38;59.89;;
70077;Laerm;57448;51.490;5.436;2023-04-25T01:04:07;43.64;38.97;48.96;;
70077;Laerm;57448;51.490;5.436;2023-04-25T01:06:09;42.49;39.06;50.30;;
70077;Laerm;57448;51.490;5.436;2023-04-25T01:08:11;41.82;38.52;47.50;;
70077;Laerm;57448;51.490;5.436;2023-04-25T01:10:13;44.67;40.44;52.58;;
70077;Laerm;57448;51.490;5.436;2023-04-25T01:12:15;42.27;37.79;52.34;;
70077;Laerm;57448;51.490;5.436;2023-04-25T01:14:17;41.62;38.49;45.36;;
70077;Laerm;57448;51.490;5.436;2023-04-25T01:16:19;43.25;39.60;49.38;;
70077;Laerm;57448;51.490;5.436;2023-04-25T01:18:20;42.99;38.94;55.29;;
70077;Laerm;57448;51.490;5.436;2023-04-25T01:20:22;44.70;39.61;54.06;;
70077;Laerm;57448;51.490;5.436;2023-04-25T01:22:25;42.89;38.95;54.02;;
70077;Laerm;57448;51.490;5.436;2023-04-25T01:24:26;42.71;38.55;57.12;;
70077;Laerm;57448;51.490;5.436;2023-04-25T01:26:28;44.07;39.87;54.60;;
70077;Laerm;57448;51.490;5.436;2023-04-25T01:28:29;44.80;40.44;49.85;;
70077;Laerm;57448;51.490;5.436;2023-04-25T01:30:31;43.93;39.37;58.14;;
70077;Laerm;57448;51.490;5.436;2023-04-25T01:32:32;42.55;38.62;48.78;;
70077;Laerm;57448;51.490;5.436;2023-04-25T01:34:38;43.51;39.99;49.40;;
70077;Laerm;57448;51.490;5.436;2023-04-25T01:36:39;42.69;38.47;65.41;;
70077;Laerm;57448;51.490;5.436;2023-04-25T01:38:42;42.59;38.64;50.63;;
70077;Laerm;57448;51.490;5.436;2023-04-25T01:40:44;43.46;39.68;51.12;;
70077;Laerm;57448;51.490;5.436;2023-04-25T01:42:46;43.82;39.04;49.38;;
70077;Laerm;57448;51.490;5.436;2023-04-25T01:44:47;43.32;39.95;49.25;;
70077;Laerm;57448;51.490;5.436;2023-04-25T01:46:48;45.43;38.81;56.58;;
70077;Laerm;57448;51.490;5.436;2023-04-25T01:48:50;43.41;39.09;48.81;;
70077;Laerm;57448;51.490;5.436;2023-04-25T01:50:51;43.56;39.87;50.66;;
70077;Laerm;57448;51.490;5.436;2023-04-25T01:52:52;43.48;38.55;49.87;;
70077;Laerm;57448;51.490;5.436;2023-04-25T01:54:56;42.35;38.61;47.17;;
70077;Laerm;57448;51.490;5.436;2023-04-25T01:56:58;44.34;40.41;50.13;;
70077;Laerm;57448;51.490;5.436;2023-04-25T01:58:59;43.45;39.65;51.93;;
70077;Laerm;57448;51.490;5.436;2023-04-25T02:01:01;45.20;41.26;51.49;;
70077;Laerm;57448;51.490;5.436;2023-04-25T02:03:02;45.17;40.72;54.46;;
70077;Laerm;57448;51.490;5.436;2023-04-25T02:05:04;44.67;40.35;50.11;;
70077;Laerm;57448;51.490;5.436;2023-04-25T02:07:05;44.63;40.80;51.81;;
70077;Laerm;57448;51.490;5.436;2023-04-25T02:09:07;43.27;40.01;47.53;;
70077;Laerm;57448;51.490;5.436;2023-04-25T02:11:09;44.70;41.26;49.61;;
70077;Laerm;57448;51.490;5.436;2023-04-25T02:13:11;45.69;41.80;54.23;;
70077;Laerm;57448;51.490;5.436;2023-04-25T02:15:12;42.98;39.12;48.76;;
70077;Laerm;57448;51.490;5.436;2023-04-25T02:17:13;43.46;39.66;52.16;;
70077;Laerm;57448;51.490;5.436;2023-04-25T02:19:15;43.56;39.29;48.32;;
70077;Laerm;57448;51.490;5.436;2023-04-25T02:21:17;45.00;41.34;51.86;;
70077;Laerm;57448;51.490;5.436;2023-04-25T02:23:18;44.17;40.02;48.71;;
70077;Laerm;57448;51.490;5.436;2023-04-25T02:25:20;44.96;40.83;49.86;;
70077;Laerm;57448;51.490;5.436;2023-04-25T02:27:22;44.56;41.11;48.75;;
70077;Laerm;57448;51.490;5.436;2023-04-25T02:29:24;45.49;41.20;50.56;;
70077;Laerm;57448;51.490;5.436;2023-04-25T02:31:25;45.05;41.32;51.99;;
70077;Laerm;57448;51.490;5.436;2023-04-25T02:33:27;46.41;41.68;51.29;;
70077;Laerm;57448;51.490;5.436;2023-04-25T02:35:28;45.91;41.83;50.61;;
70077;Laerm;57448;51.490;5.436;2023-04-25T02:37:29;46.83;42.30;52.84;;
70077;Laerm;57448;51.490;5.436;2023-04-25T02:39:31;46.70;42.65;52.52;;
70077;Laerm;57448;51.490;5.436;2023-04-25T02:41:32;47.55;43.18;52.93;;
70077;Laerm;57448;51.490;5.436;2023-04-25T02:43:35;46.46;42.28;51.84;;
70077;Laerm;57448;51.490;5.436;2023-04-25T02:45:36;46.13;41.93;51.51;;
70077;Laerm;57448;51.490;5.436;2023-04-25T02:47:37;46.75;42.61;56.65;;
70077;Laerm;57448;51.490;5.436;2023-04-25T02:49:39;46.48;42.09;68.44;;
70077;Laerm;57448;51.490;5.436;2023-04-25T02:51:40;46.50;42.10;53.56;;
70077;Laerm;57448;51.490;5.436;2023-04-25T02:53:42;46.45;42.62;54.45;;
70077;Laerm;57448;51.490;5.436;2023-04-25T02:55:43;48.73;43.33;53.98;;
70077;Laerm;57448;51.490;5.436;2023-04-25T02:57:44;45.57;41.55;49.56;;
70077;Laerm;57448;51.490;5.436;2023-04-25T02:59:47;46.41;42.64;50.38;;
70077;Laerm;57448;51.490;5.436;2023-04-25T03:01:48;46.35;42.39;52.38;;
70077;Laerm;57448;51.490;5.436;2023-04-25T03:03:50;47.62;43.92;53.87;;
70077;Laerm;57448;51.490;5.436;2023-04-25T03:05:52;47.34;43.59;53.40;;
70077;Laerm;57448;51.490;5.436;2023-04-25T03:07:53;48.12;43.74;53.53;;
70077;Laerm;57448;51.490;5.436;2023-04-25T03:09:54;48.19;44.38;54.10;;
70077;Laerm;57448;51.490;5.436;2023-04-25T03:11:56;47.97;43.37;54.06;;
70077;Laerm;57448;51.490;5.436;2023-04-25T03:13:58;47.41;43.42;54.70;;
70077;Laerm;57448;51.490;5.436;2023-04-25T03:16:00;49.10;45.22;54.24;;
70077;Laerm;57448;51.490;5.436;2023-04-25T03:18:02;48.79;45.26;53.33;;
70077;Laerm;57448;51.490;5.436;2023-04-25T03:20:04;49.26;44.68;54.09;;
70077;Laerm;57448;51.490;5.436;2023-04-25T03:22:05;48.78;44.74;54.09;;
70077;Laerm;57448;51.490;5.436;2023-04-25T03:24:06;51.66;45.44;69.16;;
70077;Laerm;57448;51.490;5.436;2023-04-25T03:26:08;56.31;45.65;69.80;;
70077;Laerm;57448;51.490;5.436;2023-04-25T03:28:09;56.37;45.09;71.99;;
70077;Laerm;57448;51.490;5.436;2023-04-25T03:30:11;56.29;46.67;72.28;;
70077;Laerm;57448;51.490;5.436;2023-04-25T03:32:14;56.28;45.29;70.36;;
70077;Laerm;57448;51.490;5.436;2023-04-25T03:34:15;50.74;46.85;57.84;;
70077;Laerm;57448;51.490;5.436;2023-04-25T03:36:16;49.50;45.41;55.01;;
70077;Laerm;57448;51.490;5.436;2023-04-25T03:38:17;50.05;46.17;54.64;;
70077;Laerm;57448;51.490;5.436;2023-04-25T03:40:19;55.16;46.02;70.77;;
70077;Laerm;57448;51.490;5.436;2023-04-25T03:42:20;50.75;46.47;61.11;;
70077;Laerm;57448;51.490;5.436;2023-04-25T03:44:22;51.23;45.22;63.28;;
70077;Laerm;57448;51.490;5.436;2023-04-25T03:46:24;53.76;45.53;71.18;;
70077;Laerm;57448;51.490;5.436;2023-04-25T03:48:27;50.23;45.15;57.96;;
70077;Laerm;57448;51.490;5.436;2023-04-25T03:50:28;49.38;46.33;53.74;;
70077;Laerm;57448;51.490;5.436;2023-04-25T03:52:30;49.12;44.93;53.08;;
70077;Laerm;57448;51.490;5.436;2023-04-25T03:54:31;49.97;45.30;58.02;;
70077;Laerm;57448;51.490;5.436;2023-04-25T03:56:32;49.62;45.94;55.57;;
70077;Laerm;57448;51.490;5.436;2023-04-25T03:58:33;49.29;45.81;54.40;;
70077;Laerm;57448;51.490;5.436;2023-04-25T04:00:35;49.95;46.33;54.99;;
70077;Laerm;57448;51.490;5.436;2023-04-25T04:02:36;49.27;46.18;52.89;;
70077;Laerm;57448;51.490;5.436;2023-04-25T04:04:40;50.28;46.09;55.25;;
70077;Laerm;57448;51.490;5.436;2023-04-25T04:06:41;49.91;46.45;55.69;;
70077;Laerm;57448;51.490;5.436;2023-04-25T04:08:42;49.75;45.75;55.75;;
70077;Laerm;57448;51.490;5.436;2023-04-25T04:10:45;49.66;46.25;55.12;;
70077;Laerm;57448;51.490;5.436;2023-04-25T04:12:46;50.09;46.68;55.90;;
70077;Laerm;57448;51.490;5.436;2023-04-25T04:14:48;51.66;46.90;69.50;;
70077;Laerm;57448;51.490;5.436;2023-04-25T04:16:50;50.29;46.88;63.36;;
70077;Laerm;57448;51.490;5.436;2023-04-25T04:18:51;49.74;46.52;54.77;;
70077;Laerm;57448;51.490;5.436;2023-04-25T04:20:54;50.23;46.60;53.72;;
70077;Laerm;57448;51.490;5.436;2023-04-25T04:22:55;50.03;46.30;54.58;;
70077;Laerm;57448;51.490;5.436;2023-04-25T04:24:57;50.73;47.61;54.49;;
70077;Laerm;57448;51.490;5.436;2023-04-25T04:26:58;51.21;47.92;58.65;;
70077;Laerm;57448;51.490;5.436;2023-04-25T04:28:59;51.78;47.71;58.68;;
70077;Laerm;57448;51.490;5.436;2023-04-25T04:31:01;51.68;48.33;55.79;;
70077;Laerm;57448;51.490;5.436;2023-04-25T04:33:02;51.75;48.04;55.60;;
70077;Laerm;57448;51.490;5.436;2023-04-25T04:35:04;53.39;47.72;75.29;;
70077;Laerm;57448;51.490;5.436;2023-04-25T04:37:07;51.30;48.13;54.52;;
70077;Laerm;57448;51.490;5.436;2023-04-25T04:39:09;51.03;48.54;55.08;;
70077;Laerm;57448;51.490;5.436;2023-04-25T04:41:11;53.14;48.04;64.63;;
70077;Laerm;57448;51.490;5.436;2023-04-25T04:43:12;51.90;47.31;66.21;;
70077;Laerm;57448;51.490;5.436;2023-04-25T04:45:17;51.17;47.50;56.18;;
70077;Laerm;57448;51.490;5.436;2023-04-25T04:47:18;51.39;47.28;61.75;;
70077;Laerm;57448;51.490;5.436;2023-04-25T04:49:20;50.27;47.40;54.68;;
70077;Laerm;57448;51.490;5.436;2023-04-25T04:51:22;51.09;47.63;58.80;;
70077;Laerm;57448;51.490;5.436;2023-04-25T04:53:24;50.21;46.98;54.31;;
70077;Laerm;57448;51.490;5.436;2023-04-25T04:55:26;49.89;46.48;53.79;;
70077;Laerm;57448;51.490;5.436;2023-04-25T04:57:27;50.06;46.43;55.73;;
70077;Laerm;57448;51.490;5.436;2023-04-25T04:59:28;49.63;46.21;54.29;;
70077;Laerm;57448;51.490;5.436;2023-04-25T05:01:30;49.97;46.35;53.37;;
70077;Laerm;57448;51.490;5.436;2023-04-25T05:03:31;50.29;46.59;56.61;;
70077;Laerm;57448;51.490;5.436;2023-04-25T05:05:32;49.43;46.64;53.52;;
70077;Laerm;57448;51.490;5.436;2023-04-25T05:07:34;49.52;45.86;57.01;;
70077;Laerm;57448;51.490;5.436;2023-04-25T05:09:36;50.09;46.88;61.52;;
70077;Laerm;57448;51.490;5.436;2023-04-25T05:11:38;50.60;47.21;54.60;;
70077;Laerm;57448;51.490;5.436;2023-04-25T05:13:39;50.46;46.90;53.70;;
70077;Laerm;57448;51.490;5.436;2023-04-25T05:15:40;49.90;46.75;53.10;;
70077;Laerm;57448;51.490;5.436;2023-04-25T05:17:42;50.18;46.90;53.22;;
70077;Laerm;57448;51.490;5.436;2023-04-25T05:19:43;49.90;46.65;53.18;;
70077;Laerm;57448;51.490;5.436;2023-04-25T05:21:44;50.52;47.53;55.31;;
70077;Laerm;57448;51.490;5.436;2023-04-25T05:23:46;50.10;47.04;52.73;;
70077;Laerm;57448;51.490;5.436;2023-04-25T05:25:48;49.81;46.29;53.85;;
70077;Laerm;57448;51.490;5.436;2023-04-25T05:27:50;49.52;46.90;52.77;;
70077;Laerm;57448;51.490;5.436;2023-04-25T05:29:52;50.36;46.84;54.51;;
70077;Laerm;57448;51.490;5.436;2023-04-25T05:31:53;51.18;46.75;58.47;;
70077;Laerm;57448;51.490;5.436;2023-04-25T05:33:55;51.20;47.29;56.99;;
70077;Laerm;57448;51.490;5.436;2023-04-25T05:35:56;51.44;47.88;57.76;;
70077;Laerm;57448;51.490;5.436;2023-04-25T05:37:57;50.79;48.20;55.35;;
70077;Laerm;57448;51.490;5.436;2023-04-25T05:39:59;50.95;47.58;56.31;;
70077;Laerm;57448;51.490;5.436;2023-04-25T05:42:01;50.20;46.49;54.45;;
70077;Laerm;57448;51.490;5.436;2023-04-25T05:44:03;49.95;46.17;54.07;;
70077;Laerm;57448;51.490;5.436;2023-04-25T05:46:05;50.18;47.04;53.92;;
70077;Laerm;57448;51.490;5.436;2023-04-25T05:48:06;49.72;46.50;54.49;;
70077;Laerm;57448;51.490;5.436;2023-04-25T05:50:08;49.43;46.28;57.13;;
70077;Laerm;57448;51.490;5.436;2023-04-25T05:52:09;48.93;45.28;55.27;;
70077;Laerm;57448;51.490;5.436;2023-04-25T05:54:11;50.08;45.72;63.83;;
70077;Laerm;57448;51.490;5.436;2023-04-25T05:56:12;48.54;44.72;54.29;;
70077;Laerm;57448;51.490;5.436;2023-04-25T05:58:15;48.39;45.51;54.64;;
70077;Laerm;57448;51.490;5.436;2023-04-25T06:00:16;54.93;45.86;68.91;;
70077;Laerm;57448;51.490;5.436;2023-04-25T06:02:19;49.84;46.47;56.21;;
70077;Laerm;57448;51.490;5.436;2023-04-25T06:04:21;54.81;45.93;67.17;;
70077;Laerm;57448;51.490;5.436;2023-04-25T06:06:22;50.16;47.28;53.51;;
70077;Laerm;57448;51.490;5.436;2023-04-25T06:08:24;49.79;46.61;53.81;;
70077;Laerm;57448;51.490;5.436;2023-04-25T06:10:25;49.78;45.78;63.91;;
70077;Laerm;57448;51.490;5.436;2023-04-25T06:12:26;50.76;47.19;61.03;;
70077;Laerm;57448;51.490;5.436;2023-04-25T06:14:29;51.99;45.98;66.92;;
70077;Laerm;57448;51.490;5.436;2023-04-25T06:16:30;51.42;46.63;65.92;;
70077;Laerm;57448;51.490;5.436;2023-04-25T06:18:32;50.13;46.93;53.72;;
70077;Laerm;57448;51.490;5.436;2023-04-25T06:20:33;50.46;47.57;53.72;;
70077;Laerm;57448;51.490;5.436;2023-04-25T06:22:34;49.42;46.12;57.22;;
70077;Laerm;57448;51.490;5.436;2023-04-25T06:24:36;49.92;46.52;58.51;;
70077;Laerm;57448;51.490;5.436;2023-04-25T06:26:37;51.61;48.29;62.12;;
70077;Laerm;57448;51.490;5.436;2023-04-25T06:28:38;51.29;47.38;55.30;;
70077;Laerm;57448;51.490;5.436;2023-04-25T06:30:41;49.83;46.30;54.12;;
70077;Laerm;57448;51.490;5.436;2023-04-25T06:32:43;50.52;47.77;57.28;;
70077;Laerm;57448;51.490;5.436;2023-04-25T06:34:44;50.72;47.32;55.82;;
70077;Laerm;57448;51.490;5.436;2023-04-25T06:36:45;49.89;46.82;53.40;;
70077;Laerm;57448;51.490;5.436;2023-04-25T06:38:47;48.33;45.38;52.11;;
70077;Laerm;57448;51.490;5.436;2023-04-25T06:40:48;47.62;44.74;54.62;;
70077;Laerm;57448;51.490;5.436;2023-04-25T06:42:49;56.13;46.48;72.84;;
70077;Laerm;57448;51.490;5.436;2023-04-25T06:44:50;51.23;45.13;65.39;;
70077;Laerm;57448;51.490;5.436;2023-04-25T06:46:53;48.42;44.70;57.70;;
70077;Laerm;57448;51.490;5.436;2023-04-25T06:48:54;49.41;46.27;63.31;;
70077;Laerm;57448;51.490;5.436;2023-04-25T06:50:56;49.97;46.17;62.16;;
70077;Laerm;57448;51.490;5.436;2023-04-25T06:52:57;50.89;45.43;62.42;;
70077;Laerm;57448;51.490;5.436;2023-04-25T06:54:58;49.55;45.94;56.72;;
70077;Laerm;57448;51.490;5.436;2023-04-25T06:57:00;48.88;45.80;53.01;;
70077;Laerm;57448;51.490;5.436;2023-04-25T06:59:01;51.18;45.76;61.29;;
70077;Laerm;57448;51.490;5.436;2023-04-25T07:01:03;50.26;46.19;58.51;;
70077;Laerm;57448;51.490;5.436;2023-04-25T07:03:05;49.30;45.81;54.08;;
70077;Laerm;57448;51.490;5.436;2023-04-25T07:05:07;62.86;45.56;82.50;;
70077;Laerm;57448;51.490;5.436;2023-04-25T07:07:09;50.48;46.15;56.16;;
70077;Laerm;57448;51.490;5.436;2023-04-25T07:09:10;50.36;46.28;55.87;;
70077;Laerm;57448;51.490;5.436;2023-04-25T07:11:12;49.06;44.24;54.80;;
70077;Laerm;57448;51.490;5.436;2023-04-25T07:13:13;51.71;44.96;66.91;;
70077;Laerm;57448;51.490;5.436;2023-04-25T07:15:14;50.69;46.01;64.45;;
70077;Laerm;57448;51.490;5.436;2023-04-25T07:17:16;62.40;47.95;77.74;;
70077;Laerm;57448;51.490;5.436;2023-04-25T07:19:18;50.18;45.27;63.08;;
70077;Laerm;57448;51.490;5.436;2023-04-25T07:21:20;49.88;44.97;60.01;;
70077;Laerm;57448;51.490;5.436;2023-04-25T07:23:21;48.18;45.07;56.75;;
70077;Laerm;57448;51.490;5.436;2023-04-25T07:25:22;50.24;45.67;60.37;;
70077;Laerm;57448;51.490;5.436;2023-04-25T07:27:24;49.62;45.70;56.49;;
70077;Laerm;57448;51.490;5.436;2023-04-25T07:29:26;49.53;45.86;55.16;;
70077;Laerm;57448;51.490;5.436;2023-04-25T07:31:27;50.14;45.40;61.54;;
70077;Laerm;57448;51.490;5.436;2023-04-25T07:33:28;49.63;45.61;61.36;;
70077;Laerm;57448;51.490;5.436;2023-04-25T07:35:31;60.38;46.96;77.61;;
70077;Laerm;57448;51.490;5.436;2023-04-25T07:37:33;50.23;46.09;59.42;;
70077;Laerm;57448;51.490;5.436;2023-04-25T07:39:34;48.70;45.39;52.98;;
70077;Laerm;57448;51.490;5.436;2023-04-25T07:41:37;49.54;45.42;54.36;;
70077;Laerm;57448;51.490;5.436;2023-04-25T07:43:38;50.63;46.76;66.05;;
70077;Laerm;57448;51.490;5.436;2023-04-25T07:45:39;53.00;48.60;61.73;;
70077;Laerm;57448;51.490;5.436;2023-04-25T07:47:41;52.21;46.94;64.08;;
70077;Laerm;57448;51.490;5.436;2023-04-25T07:49:42;51.93;46.13;57.71;;
70077;Laerm;57448;51.490;5.436;2023-04-25T07:51:45;53.90;48.47;64.97;;
70077;Laerm;57448;51.490;5.436;2023-04-25T07:53:47;51.95;47.47;61.20;;
70077;Laerm;57448;51.490;5.436;2023-04-25T07:55:48;52.58;48.00;62.37;;
70077;Laerm;57448;51.490;5.436;2023-04-25T07:57:49;53.79;48.46;62.76;;
70077;Laerm;57448;51.490;5.436;2023-04-25T07:59:51;51.13;46.90;55.97;;
70077;Laerm;57448;51.490;5.436;2023-04-25T08:01:52;49.55;45.48;54.59;;
70077;Laerm;57448;51.490;5.436;2023-04-25T08:03:53;50.25;46.38;63.80;;
70077;Laerm;57448;51.490;5.436;2023-04-25T08:05:55;51.07;46.89;56.18;;
70077;Laerm;57448;51.490;5.436;2023-04-25T08:07:57;49.87;45.86;63.10;;
70077;Laerm;57448;51.490;5.436;2023-04-25T08:09:59;49.44;45.84;54.59;;
70077;Laerm;57448;51.490;5.436;2023-04-25T08:12:00;49.79;45.40;60.52;;
70077;Laerm;57448;51.490;5.436;2023-04-25T08:14:02;51.37;47.08;59.53;;
70077;Laerm;57448;51.490;5.436;2023-04-25T08:16:03;51.54;47.00;56.45;;
70077;Laerm;57448;51.490;5.436;2023-04-25T08:18:05;49.97;46.35;54.48;;
70077;Laerm;57448;51.490;5.436;2023-04-25T08:20:06;50.44;46.08;55.43;;
70077;Laerm;57448;51.490;5.436;2023-04-25T08:22:08;50.62;46.87;58.48;;
70077;Laerm;57448;51.490;5.436;2023-04-25T08:24:11;52.29;47.40;65.64;;
70077;Laerm;57448;51.490;5.436;2023-04-25T08:26:12;66.38;47.91;86.48;;
70077;Laerm;57448;51.490;5.436;2023-04-25T08:28:14;63.10;47.58;80.50;;
70077;Laerm;57448;51.490;5.436;2023-04-25T08:30:16;51.52;47.47;59.35;;
70077;Laerm;57448;51.490;5.436;2023-04-25T08:32:18;52.16;46.07;64.56;;
70077;Laerm;57448;51.490;5.436;2023-04-25T08:34:19;48.46;44.87;52.18;;
70077;Laerm;57448;51.490;5.436;2023-04-25T08:36:21;47.91;44.51;52.59;;
70077;Laerm;57448;51.490;5.436;2023-04-25T08:38:22;48.81;44.90;58.51;;
70077;Laerm;57448;51.490;5.436;2023-04-25T08:40:26;49.46;45.75;62.69;;
70077;Laerm;57448;51.490;5.436;2023-04-25T08:42:30;50.83;46.23;62.11;;
70077;Laerm;57448;51.490;5.436;2023-04-25T08:44:32;62.88;46.58;81.84;;
70077;Laerm;57448;51.490;5.436;2023-04-25T08:46:34;63.54;46.89;80.90;;
70077;Laerm;57448;51.490;5.436;2023-04-25T08:48:35;51.29;47.56;59.11;;
70077;Laerm;57448;51.490;5.436;2023-04-25T08:50:37;50.59;45.35;62.63;;
70077;Laerm;57448;51.490;5.436;2023-04-25T08:52:44;49.23;44.36;62.04;;
70077;Laerm;57448;51.490;5.436;2023-04-25T08:54:46;47.41;43.65;51.67;;
70077;Laerm;57448;51.490;5.436;2023-04-25T08:56:50;46.92;42.92;52.30;;
70077;Laerm;57448;51.490;5.436;2023-04-25T08:58:51;49.31;44.37;63.20;;
70077;Laerm;57448;51.490;5.436;2023-04-25T09:00:53;48.25;44.41;58.55;;
70077;Laerm;57448;51.490;5.436;2023-04-25T09:02:54;47.55;44.19;51.25;;
70077;Laerm;57448;51.490;5.436;2023-04-25T09:04:56;49.42;44.51;62.66;;
70077;Laerm;57448;51.490;5.436;2023-04-25T09:06:58;47.80;43.60;59.80;;
70077;Laerm;57448;51.490;5.436;2023-04-25T09:09:01;48.41;44.77;60.96;;
70077;Laerm;57448;51.490;5.436;2023-04-25T09:11:03;65.34;46.30;81.70;;
70077;Laerm;57448;51.490;5.436;2023-04-25T09:13:06;50.04;45.82;63.04;;
70077;Laerm;57448;51.490;5.436;2023-04-25T09:15:09;49.60;45.31;64.08;;
70077;Laerm;57448;51.490;5.436;2023-04-25T09:17:11;64.94;46.27;80.42;;
70077;Laerm;57448;51.490;5.436;2023-04-25T09:19:17;48.17;44.33;55.50;;
70077;Laerm;57448;51.490;5.436;2023-04-25T09:21:21;50.06;45.57;62.64;;
70077;Laerm;57448;51.490;5.436;2023-04-25T09:23:23;48.40;43.96;54.52;;
70077;Laerm;57448;51.490;5.436;2023-04-25T09:25:25;47.61;44.58;61.90;;
70077;Laerm;57448;51.490;5.436;2023-04-25T09:27:26;49.35;45.71;68.29;;
70077;Laerm;57448;51.490;5.436;2023-04-25T09:29:30;50.75;44.74;65.49;;
70077;Laerm;57448;51.490;5.436;2023-04-25T09:31:32;49.66;45.77;62.93;;
70077;Laerm;57448;51.490;5.436;2023-04-25T09:33:34;49.33;45.32;59.44;;
70077;Laerm;57448;51.490;5.436;2023-04-25T09:35:36;61.23;46.03;78.17;;
70077;Laerm;57448;51.490;5.436;2023-04-25T09:37:39;50.95;45.85;62.33;;
70077;Laerm;57448;51.490;5.436;2023-04-25T09:39:41;50.37;46.33;63.28;;
70077;Laerm;57448;51.490;5.436;2023-04-25T09:41:45;50.65;46.01;62.01;;
70077;Laerm;57448;51.490;5.436;2023-04-25T09:43:46;51.97;46.55;64.14;;
70077;Laerm;57448;51.490;5.436;2023-04-25T09:45:53;50.55;44.97;65.89;;
70077;Laerm;57448;51.490;5.436;2023-04-25T09:47:59;51.64;46.56;64.38;;
70077;Laerm;57448;51.490;5.436;2023-04-25T09:50:04;49.37;45.23;60.39;;
70077;Laerm;57448;51.490;5.436;2023-04-25T09:52:15;49.48;46.36;60.39;;
70077;Laerm;57448;51.490;5.436;2023-04-25T09:54:17;49.57;44.65;64.62;;
70077;Laerm;57448;51.490;5.436;2023-04-25T09:56:18;51.52;46.62;61.97;;
70077;Laerm;57448;51.490;5.436;2023-04-25T09:58:20;51.56;46.79;63.95;;
70077;Laerm;57448;51.490;5.436;2023-04-25T10:00:22;49.99;46.62;59.16;;
70077;Laerm;57448;51.490;5.436;2023-04-25T10:02:26;50.76;47.35;56.66;;
70077;Laerm;57448;51.490;5.436;2023-04-25T10:04:28;50.42;46.59;66.01;;
70077;Laerm;57448;51.490;5.436;2023-04-25T10:06:30;49.90;45.49;54.97;;
70077;Laerm;57448;51.490;5.436;2023-04-25T10:08:33;51.95;47.47;63.24;;
70077;Laerm;57448;51.490;5.436;2023-04-25T10:10:35;52.12;47.16;63.40;;
70077;Laerm;57448;51.490;5.436;2023-04-25T10:12:38;50.21;46.53;56.00;;
70077;Laerm;57448;51.490;5.436;2023-04-25T10:14:40;50.21;44.94;64.50;;
70077;Laerm;57448;51.490;5.436;2023-04-25T10:16:42;47.29;43.76;53.38;;
70077;Laerm;57448;51.490;5.436;2023-04-25T10:18:45;48.85;44.56;60.29;;
70077;Laerm;57448;51.490;5.436;2023-04-25T10:20:46;50.13;45.47;63.70;;
70077;Laerm;57448;51.490;5.436;2023-04-25T10:22:47;49.67;45.53;58.77;;
70077;Laerm;57448;51.490;5.436;2023-04-25T10:24:54;48.62;42.91;57.52;;
70077;Laerm;57448;51.490;5.436;2023-04-25T10:26:56;47.59;42.41;62.67;;
70077;Laerm;57448;51.490;5.436;2023-04-25T10:28:59;48.55;44.51;58.91;;
70077;Laerm;57448;51.490;5.436;2023-04-25T10:31:01;48.37;45.20;64.26;;
70077;Laerm;57448;51.490;5.436;2023-04-25T10:33:03;47.89;43.72;60.07;;
70077;Laerm;57448;51.490;5.436;2023-04-25T10:35:19;62.08;44.97;78.05;;
70077;Laerm;57448;51.490;5.436;2023-04-25T10:37:24;66.75;46.08;85.57;;
70077;Laerm;57448;51.490;5.436;2023-04-25T10:39:26;50.14;46.47;59.57;;
70077;Laerm;57448;51.490;5.436;2023-04-25T10:41:28;50.66;44.99;61.94;;
70077;Laerm;57448;51.490;5.436;2023-04-25T10:43:33;51.68;47.05;64.83;;
70077;Laerm;57448;51.490;5.436;2023-04-25T10:45:48;50.00;45.68;60.36;;
70077;Laerm;57448;51.490;5.436;2023-04-25T10:47:51;48.60;45.08;59.62;;
70077;Laerm;57448;51.490;5.436;2023-04-25T10:49:53;49.96;45.97;59.41;;
70077;Laerm;57448;51.490;5.436;2023-04-25T10:52:08;52.03;45.49;64.74;;
70077;Laerm;57448;51.490;5.436;2023-04-25T10:54:11;51.57;46.73;65.38;;
70077;Laerm;57448;51.490;5.436;2023-04-25T10:56:16;49.65;45.62;61.55;;
70077;Laerm;57448;51.490;5.436;2023-04-25T10:58:20;48.20;45.26;55.71;;
70077;Laerm;57448;51.490;5.436;2023-04-25T11:00:22;49.47;44.15;63.37;;
70077;Laerm;57448;51.490;5.436;2023-04-25T11:02:26;48.77;44.18;68.33;;
70077;Laerm;57448;51.490;5.436;2023-04-25T11:04:29;46.16;42.75;51.56;;
70077;Laerm;57448;51.490;5.436;2023-04-25T11:06:34;47.10;43.21;51.71;;
70077;Laerm;57448;51.490;5.436;2023-04-25T11:08:42;48.90;44.73;60.51;;
70077;Laerm;57448;51.490;5.436;2023-04-25T11:10:48;48.94;43.32;65.35;;
70077;Laerm;57448;51.490;5.436;2023-04-25T11:12:49;49.01;44.02;66.46;;
70077;Laerm;57448;51.490;5.436;2023-04-25T11:14:57;60.69;43.44;79.52;;
70077;Laerm;57448;51.490;5.436;2023-04-25T11:16:59;51.24;44.36;82.27;;
70077;Laerm;57448;51.490;5.436;2023-04-25T11:19:00;51.54;45.23;83.14;;
70077;Laerm;57448;51.490;5.436;2023-04-25T11:21:02;64.04;46.57;82.59;;
70077;Laerm;57448;51.490;5.436;2023-04-25T11:23:04;51.02;46.89;66.45;;